createdAt,value
2022-11-08T00:16:54.635Z,100
2022-11-08T00:36:08.599Z,100
2022-11-08T00:45:45.858Z,100
2022-11-08T00:55:22.646Z,100
2022-11-08T01:04:59.330Z,100
2022-11-08T01:14:36.319Z,100
2022-11-08T01:24:13.632Z,100
2022-11-08T01:33:51.677Z,100
2022-11-08T01:43:29.043Z,100
2022-11-08T01:53:05.610Z,100
2022-11-08T02:02:42.368Z,100
2022-11-08T02:12:18.552Z,100
2022-11-08T02:21:55.816Z,100
2022-11-08T02:31:33.178Z,100
2022-11-08T02:41:10.747Z,100
2022-11-08T02:50:48.016Z,100
2022-11-08T03:00:25.019Z,100
2022-11-08T03:10:00.703Z,100
2022-11-08T03:19:37.216Z,100
2022-11-08T03:29:14.133Z,100
2022-11-08T03:58:05.406Z,100
2022-11-08T04:07:42.280Z,100
2022-11-08T04:17:19.294Z,100
2022-11-08T04:26:56.551Z,100
2022-11-08T04:36:33.577Z,100
2022-11-08T04:46:10.535Z,100
2022-11-08T04:55:47.667Z,100
2022-11-08T05:05:24.468Z,100
2022-11-08T05:15:01.860Z,100
2022-11-08T05:24:38.560Z,100
2022-11-08T05:34:15.317Z,100
2022-11-08T05:43:51.969Z,100
2022-11-08T05:53:28.917Z,100
2022-11-08T06:03:05.451Z,100
2022-11-08T06:12:42.273Z,100
2022-11-08T06:22:18.846Z,100
2022-11-08T06:31:56.108Z,100
2022-11-08T06:41:33.333Z,100
2022-11-08T06:51:10.453Z,100
2022-11-08T07:00:47.846Z,100
2022-11-08T07:20:02.003Z,100
2022-11-08T07:29:39.510Z,100
2022-11-08T07:39:17.097Z,100
2022-11-08T07:48:54.650Z,100
2022-11-08T07:58:32.298Z,100
2022-11-08T08:08:10.082Z,99.58
2022-11-08T08:17:48.127Z,96.77
2022-11-08T08:27:26.058Z,94.3
2022-11-08T08:37:04.147Z,91.69
2022-11-08T08:46:42.025Z,90.23
2022-11-08T08:56:19.649Z,88.75
2022-11-08T09:15:36.036Z,84.24
2022-11-08T09:34:51.933Z,79.98
2022-11-08T09:44:30.348Z,76.26
2022-11-08T09:54:08.690Z,76.09
2022-11-08T10:03:46.085Z,75.02
2022-11-08T10:13:23.768Z,71.16
2022-11-08T10:23:01.611Z,70.68
2022-11-08T10:32:40.204Z,67.92
2022-11-08T10:42:18.851Z,64.14
2022-11-08T10:51:58.654Z,59.92
2022-11-08T11:02:02.712Z,55.88
2022-11-08T11:11:46.695Z,56.07
2022-11-08T11:21:15.220Z,55.82
2022-11-08T11:30:53.881Z,54.43
2022-11-08T11:40:34.465Z,53.26
2022-11-08T11:50:04.403Z,52.77
2022-11-08T12:09:18.132Z,50.57
2022-11-08T12:18:55.608Z,51.5
2022-11-08T12:28:33.076Z,50.38
2022-11-08T12:38:11.237Z,49.12
2022-11-08T12:48:22.831Z,48.85
2022-11-08T12:58:10.866Z,46.94
2022-11-08T13:07:51.039Z,46.9
2022-11-08T13:17:30.408Z,44.96
2022-11-08T13:27:08.978Z,45.12
2022-11-08T13:36:28.553Z,46.93
2022-11-08T13:45:48.694Z,49.77
2022-11-08T13:55:18.199Z,50.93
2022-11-08T14:04:51.243Z,51.89
2022-11-08T14:14:35.553Z,50.59
2022-11-08T14:24:08.219Z,51.34
2022-11-08T14:33:45.948Z,51.23
2022-11-08T14:43:20.438Z,52.81
2022-11-08T14:52:55.290Z,50.26
2022-11-08T15:12:07.169Z,53.14
2022-11-08T15:31:18.768Z,58.37
2022-11-08T15:40:54.225Z,60.75
2022-11-08T15:50:30.515Z,62.46
2022-11-08T16:00:07.138Z,63.5
2022-11-08T16:09:44.056Z,64.88
2022-11-08T16:19:20.844Z,64.06
2022-11-08T16:48:12.689Z,65.32
2022-11-08T16:57:49.814Z,66.5
2022-11-08T17:07:26.473Z,67.9
2022-11-08T17:17:03.125Z,69.4
2022-11-08T17:26:39.520Z,69.29
2022-11-08T17:36:16.092Z,71.12
2022-11-08T17:45:53.079Z,71.82
2022-11-08T17:55:30.312Z,73.68
2022-11-08T18:05:07.502Z,72.96
2022-11-08T18:14:44.674Z,71.47
2022-11-08T18:24:21.814Z,68.58
2022-11-08T18:33:58.962Z,66.57
2022-11-08T18:43:36.272Z,68.03
2022-11-08T18:53:13.333Z,69.28
2022-11-08T19:02:50.888Z,66.74
2022-11-08T19:12:28.372Z,67.06
2022-11-08T19:22:05.611Z,68.29
2022-11-08T19:31:42.348Z,73.58
2022-11-08T19:41:19.033Z,74.5
2022-11-08T19:50:57.588Z,70.31
2022-11-08T20:10:10.983Z,73.96
2022-11-08T20:19:47.920Z,71.45
2022-11-08T20:29:24.728Z,72.66
2022-11-08T20:39:05.586Z,72.37
2022-11-08T20:48:42.704Z,71.04
2022-11-08T20:58:15.920Z,70.76
2022-11-08T21:08:02.196Z,71.94
2022-11-08T21:27:07.242Z,70.36
2022-11-08T21:36:44.895Z,69.42
2022-11-08T21:46:21.762Z,69.3
2022-11-08T21:55:59.296Z,68.58
2022-11-08T22:05:36.422Z,68.42
2022-11-08T22:15:14.090Z,68.92
2022-11-08T22:24:50.823Z,70.92
2022-11-08T22:34:27.835Z,70.5
2022-11-08T22:44:08.982Z,70.72
2022-11-08T22:53:41.703Z,70.98
2022-11-08T23:03:19.050Z,70.72
2022-11-08T23:12:56.167Z,70.24
2022-11-08T23:22:33.160Z,69.48
2022-11-08T23:32:10.708Z,70.14
2022-11-08T23:41:47.669Z,69.45
2022-11-08T23:51:25.291Z,68.82
